sensor_id;sensor_type;location;lat;lon;timestamp;pressure;altitude;pressure_sealevel;temperature;humidity
70930;BME280;58588;48.102;19.682;2022-08-11T00:00:58;99984.75;;;14.71;97.30
70930;BME280;58588;48.102;19.682;2022-08-11T00:04:02;99985.78;;;14.42;99.78
70930;BME280;58588;48.102;19.682;2022-08-11T00:07:07;99993.88;;;14.35;99.88
70930;BME280;58588;48.102;19.682;2022-08-11T00:10:13;99981.47;;;14.48;99.17
70930;BME280;58588;48.102;19.682;2022-08-11T00:13:15;99984.09;;;14.41;99.71
70930;BME280;58588;48.102;19.682;2022-08-11T00:16:20;99979.91;;;14.38;99.72
70930;BME280;58588;48.102;19.682;2022-08-11T00:19:25;99980.41;;;14.20;100.00
70930;BME280;58588;48.102;19.682;2022-08-11T00:22:29;99979.22;;;14.30;99.93
70930;BME280;58588;48.102;19.682;2022-08-11T00:25:37;99982.69;;;14.17;100.00
70930;BME280;58588;48.102;19.682;2022-08-11T00:28:40;99983.31;;;14.19;100.00
70930;BME280;58588;48.102;19.682;2022-08-11T00:31:46;99978.09;;;14.17;99.42
70930;BME280;58588;48.102;19.682;2022-08-11T00:34:50;99983.94;;;14.21;99.77
70930;BME280;58588;48.102;19.682;2022-08-11T00:37:54;99974.69;;;14.09;100.00
70930;BME280;58588;48.102;19.682;2022-08-11T00:41:03;99972.22;;;14.14;100.00
70930;BME280;58588;48.102;19.682;2022-08-11T00:44:27;99969.22;;;14.02;100.00
70930;BME280;58588;48.102;19.682;2022-08-11T00:47:42;;;;14.01;
70930;BME280;58588;48.102;19.682;2022-08-11T00:51:01;99968.38;;;14.02;100.00
70930;BME280;58588;48.102;19.682;2022-08-11T00:54:25;99973.69;;;13.88;100.00
70930;BME280;58588;48.102;19.682;2022-08-11T00:57:53;99971.09;;;13.74;100.00
70930;BME280;58588;48.102;19.682;2022-08-11T01:01:15;99972.44;;;13.63;100.00
70930;BME280;58588;48.102;19.682;2022-08-11T01:12:30;99971.72;;;13.54;100.00
70930;BME280;58588;48.102;19.682;2022-08-11T01:16:04;99966.56;;;13.59;100.00
70930;BME280;58588;48.102;19.682;2022-08-11T01:30:34;99972.94;;;13.52;100.00
70930;BME280;58588;48.102;19.682;2022-08-11T01:38:06;99974.78;;;13.30;100.00
70930;BME280;58588;48.102;19.682;2022-08-11T01:41:25;99968.25;;;13.24;100.00
70930;BME280;58588;48.102;19.682;2022-08-11T01:48:40;99968.38;;;13.16;100.00
70930;BME280;58588;48.102;19.682;2022-08-11T01:51:57;99964.28;;;13.05;100.00
70930;BME280;58588;48.102;19.682;2022-08-11T01:55:16;99967.94;;;12.98;100.00
70930;BME280;58588;48.102;19.682;2022-08-11T01:58:26;99967.09;;;12.97;100.00
70930;BME280;58588;48.102;19.682;2022-08-11T02:01:37;99960.84;;;12.97;100.00
70930;BME280;58588;48.102;19.682;2022-08-11T02:04:52;99963.16;;;13.00;100.00
70930;BME280;58588;48.102;19.682;2022-08-11T02:08:04;99959.91;;;13.04;100.00
70930;BME280;58588;48.102;19.682;2022-08-11T02:11:21;99954.47;;;13.04;100.00
70930;BME280;58588;48.102;19.682;2022-08-11T02:14:38;99955.97;;;13.07;100.00
70930;BME280;58588;48.102;19.682;2022-08-11T02:17:52;99962.06;;;12.94;100.00
70930;BME280;58588;48.102;19.682;2022-08-11T02:21:02;99954.41;;;12.98;100.00
70930;BME280;58588;48.102;19.682;2022-08-11T02:24:29;99954.22;;;12.99;100.00
70930;BME280;58588;48.102;19.682;2022-08-11T02:27:40;99961.50;;;12.99;100.00
70930;BME280;58588;48.102;19.682;2022-08-11T02:30:51;99966.44;;;12.95;100.00
70930;BME280;58588;48.102;19.682;2022-08-11T02:34:27;99950.41;;;12.94;100.00
70930;BME280;58588;48.102;19.682;2022-08-11T02:37:41;99958.56;;;12.79;100.00
70930;BME280;58588;48.102;19.682;2022-08-11T02:40:52;99958.63;;;12.71;100.00
70930;BME280;58588;48.102;19.682;2022-08-11T02:44:14;99954.94;;;12.57;100.00
70930;BME280;58588;48.102;19.682;2022-08-11T02:47:32;99954.94;;;12.57;100.00
70930;BME280;58588;48.102;19.682;2022-08-11T02:50:41;99958.03;;;12.54;100.00
70930;BME280;58588;48.102;19.682;2022-08-11T02:53:56;99950.63;;;12.63;100.00
70930;BME280;58588;48.102;19.682;2022-08-11T02:57:08;99948.22;;;12.68;100.00
70930;BME280;58588;48.102;19.682;2022-08-11T03:00:16;99944.38;;;12.47;100.00
70930;BME280;58588;48.102;19.682;2022-08-11T03:03:23;99952.25;;;12.42;100.00
70930;BME280;58588;48.102;19.682;2022-08-11T03:06:34;99954.66;;;12.37;100.00
70930;BME280;58588;48.102;19.682;2022-08-11T03:09:45;99949.16;;;12.30;100.00
70930;BME280;58588;48.102;19.682;2022-08-11T03:12:56;99947.84;;;12.26;100.00
70930;BME280;58588;48.102;19.682;2022-08-11T03:16:23;99952.31;;;12.19;100.00
70930;BME280;58588;48.102;19.682;2022-08-11T03:19:52;99952.78;;;12.23;100.00
70930;BME280;58588;48.102;19.682;2022-08-11T03:23:04;99961.91;;;12.22;100.00
70930;BME280;58588;48.102;19.682;2022-08-11T03:26:14;99958.00;;;12.24;100.00
70930;BME280;58588;48.102;19.682;2022-08-11T03:29:29;99954.91;;;12.13;100.00
70930;BME280;58588;48.102;19.682;2022-08-11T03:32:45;99961.97;;;11.99;100.00
70930;BME280;58588;48.102;19.682;2022-08-11T03:36:21;99954.69;;;11.85;100.00
70930;BME280;58588;48.102;19.682;2022-08-11T03:39:36;99954.97;;;11.90;100.00
70930;BME280;58588;48.102;19.682;2022-08-11T03:42:54;99955.81;;;11.90;100.00
70930;BME280;58588;48.102;19.682;2022-08-11T03:46:03;99952.91;;;11.92;100.00
70930;BME280;58588;48.102;19.682;2022-08-11T03:49:22;99956.44;;;11.92;100.00
70930;BME280;58588;48.102;19.682;2022-08-11T03:52:43;99951.53;;;12.11;100.00
70930;BME280;58588;48.102;19.682;2022-08-11T03:56:12;99959.75;;;12.02;100.00
70930;BME280;58588;48.102;19.682;2022-08-11T04:03:07;99957.28;;;11.93;100.00
70930;BME280;58588;48.102;19.682;2022-08-11T04:06:33;99963.06;;;11.90;99.75
70930;BME280;58588;48.102;19.682;2022-08-11T04:21:10;99964.66;;;11.99;100.00
70930;BME280;58588;48.102;19.682;2022-08-11T04:24:37;99958.25;;;12.00;100.00
70930;BME280;58588;48.102;19.682;2022-08-11T04:28:11;99963.00;;;11.98;100.00
70930;BME280;58588;48.102;19.682;2022-08-11T04:31:35;99958.25;;;12.00;100.00
70930;BME280;58588;48.102;19.682;2022-08-11T04:34:54;99958.72;;;12.03;100.00
70930;BME280;58588;48.102;19.682;2022-08-11T04:38:17;99960.69;;;12.10;99.83
70930;BME280;58588;48.102;19.682;2022-08-11T04:41:52;99956.88;;;12.19;99.71
70930;BME280;58588;48.102;19.682;2022-08-11T04:45:44;99968.81;;;12.24;98.76
70930;BME280;58588;48.102;19.682;2022-08-11T04:49:09;99964.72;;;12.28;99.65
70930;BME280;58588;48.102;19.682;2022-08-11T04:53:00;99966.31;;;12.38;100.00
70930;BME280;58588;48.102;19.682;2022-08-11T04:56:23;99961.72;;;12.53;100.00
70930;BME280;58588;48.102;19.682;2022-08-11T04:59:59;99966.88;;;12.63;100.00
70930;BME280;58588;48.102;19.682;2022-08-11T05:03:42;99965.34;;;12.75;100.00
70930;BME280;58588;48.102;19.682;2022-08-11T05:07:10;99967.38;;;12.88;100.00
70930;BME280;58588;48.102;19.682;2022-08-11T05:10:20;99965.44;;;12.96;100.00
70930;BME280;58588;48.102;19.682;2022-08-11T05:13:28;99969.31;;;13.08;100.00
70930;BME280;58588;48.102;19.682;2022-08-11T05:16:52;99967.63;;;13.22;100.00
70930;BME280;58588;48.102;19.682;2022-08-11T05:20:12;99957.59;;;13.37;100.00
70930;BME280;58588;48.102;19.682;2022-08-11T05:23:33;99961.06;;;13.53;100.00
70930;BME280;58588;48.102;19.682;2022-08-11T05:26:53;99964.31;;;13.63;100.00
70930;BME280;58588;48.102;19.682;2022-08-11T05:30:14;99955.03;;;13.79;100.00
70930;BME280;58588;48.102;19.682;2022-08-11T05:33:37;99960.19;;;13.95;100.00
70930;BME280;58588;48.102;19.682;2022-08-11T05:37:05;99957.56;;;14.08;100.00
70930;BME280;58588;48.102;19.682;2022-08-11T05:40:10;99955.41;;;14.25;100.00
70930;BME280;58588;48.102;19.682;2022-08-11T05:43:32;99953.50;;;14.47;100.00
70930;BME280;58588;48.102;19.682;2022-08-11T05:46:52;99949.25;;;14.72;100.00
70930;BME280;58588;48.102;19.682;2022-08-11T05:50:17;99950.81;;;14.95;100.00
70930;BME280;58588;48.102;19.682;2022-08-11T05:53:51;99944.16;;;15.11;99.51
70930;BME280;58588;48.102;19.682;2022-08-11T05:57:18;99930.88;;;15.36;96.49
70930;BME280;58588;48.102;19.682;2022-08-11T06:00:21;99937.16;;;15.56;95.35
70930;BME280;58588;48.102;19.682;2022-08-11T06:03:26;99949.75;;;15.77;95.04
70930;BME280;58588;48.102;19.682;2022-08-11T06:06:30;99937.00;;;15.91;93.43
70930;BME280;58588;48.102;19.682;2022-08-11T06:09:34;99935.31;;;16.10;92.80
70930;BME280;58588;48.102;19.682;2022-08-11T06:12:37;99938.84;;;16.30;91.66
70930;BME280;58588;48.102;19.682;2022-08-11T06:15:43;99931.91;;;16.47;90.75
70930;BME280;58588;48.102;19.682;2022-08-11T06:18:46;99940.88;;;16.54;91.34
70930;BME280;58588;48.102;19.682;2022-08-11T06:21:52;99942.47;;;16.89;89.43
70930;BME280;58588;48.102;19.682;2022-08-11T06:24:57;99941.09;;;17.18;87.10
70930;BME280;58588;48.102;19.682;2022-08-11T06:28:01;99942.25;;;17.35;86.03
70930;BME280;58588;48.102;19.682;2022-08-11T06:31:11;99937.47;;;17.55;84.16
70930;BME280;58588;48.102;19.682;2022-08-11T06:34:27;99937.47;;;17.87;85.26
70930;BME280;58588;48.102;19.682;2022-08-11T06:37:56;99928.59;;;18.16;81.31
70930;BME280;58588;48.102;19.682;2022-08-11T06:41:03;99931.16;;;18.36;83.07
70930;BME280;58588;48.102;19.682;2022-08-11T06:44:29;99928.81;;;18.58;81.40
70930;BME280;58588;48.102;19.682;2022-08-11T06:47:33;99929.13;;;18.87;78.37
70930;BME280;58588;48.102;19.682;2022-08-11T06:50:36;99931.34;;;19.27;80.12
70930;BME280;58588;48.102;19.682;2022-08-11T06:53:59;99935.91;;;19.74;75.69
70930;BME280;58588;48.102;19.682;2022-08-11T06:57:02;99930.47;;;19.98;73.90
70930;BME280;58588;48.102;19.682;2022-08-11T07:00:24;99929.75;;;20.38;74.28
70930;BME280;58588;48.102;19.682;2022-08-11T07:03:31;99926.59;;;20.81;65.04
70930;BME280;58588;48.102;19.682;2022-08-11T07:06:45;99931.22;;;21.32;57.65
70930;BME280;58588;48.102;19.682;2022-08-11T07:10:27;99936.25;;;21.52;58.99
70930;BME280;58588;48.102;19.682;2022-08-11T07:13:53;99924.06;;;21.77;50.59
70930;BME280;58588;48.102;19.682;2022-08-11T07:17:21;99927.72;;;21.99;48.36
70930;BME280;58588;48.102;19.682;2022-08-11T07:20:23;99923.00;;;22.11;50.15
70930;BME280;58588;48.102;19.682;2022-08-11T07:23:42;99933.03;;;22.39;50.84
70930;BME280;58588;48.102;19.682;2022-08-11T07:27:15;99925.72;;;22.67;45.23
70930;BME280;58588;48.102;19.682;2022-08-11T07:30:39;99916.94;;;22.87;45.86
70930;BME280;58588;48.102;19.682;2022-08-11T07:33:45;99922.13;;;23.05;45.07
70930;BME280;58588;48.102;19.682;2022-08-11T07:36:53;99920.25;;;23.11;48.23
70930;BME280;58588;48.102;19.682;2022-08-11T07:39:57;99910.97;;;23.17;43.70
70930;BME280;58588;48.102;19.682;2022-08-11T07:43:02;99915.50;;;23.28;44.51
70930;BME280;58588;48.102;19.682;2022-08-11T07:46:05;99920.44;;;23.53;44.53
70930;BME280;58588;48.102;19.682;2022-08-11T07:49:26;99908.56;;;23.80;43.84
70930;BME280;58588;48.102;19.682;2022-08-11T07:52:46;99911.59;;;23.78;41.15
70930;BME280;58588;48.102;19.682;2022-08-11T07:55:48;99909.06;;;23.71;42.76
70930;BME280;58588;48.102;19.682;2022-08-11T07:58:53;99907.28;;;23.92;41.76
70930;BME280;58588;48.102;19.682;2022-08-11T08:02:12;99900.34;;;24.22;44.15
70930;BME280;58588;48.102;19.682;2022-08-11T08:05:36;99896.72;;;24.59;40.02
70930;BME280;58588;48.102;19.682;2022-08-11T08:08:56;99897.91;;;24.25;40.15
70930;BME280;58588;48.102;19.682;2022-08-11T08:12:16;99892.72;;;24.34;40.46
70930;BME280;58588;48.102;19.682;2022-08-11T08:15:39;99894.13;;;24.89;40.35
70930;BME280;58588;48.102;19.682;2022-08-11T08:18:59;99897.34;;;24.28;38.40
70930;BME280;58588;48.102;19.682;2022-08-11T08:22:02;99890.47;;;24.73;39.78
70930;BME280;58588;48.102;19.682;2022-08-11T08:25:05;99876.44;;;24.33;37.92
70930;BME280;58588;48.102;19.682;2022-08-11T08:28:09;99882.19;;;24.73;38.30
70930;BME280;58588;48.102;19.682;2022-08-11T08:31:14;99878.28;;;24.59;39.60
70930;BME280;58588;48.102;19.682;2022-08-11T08:34:16;99883.19;;;25.15;38.11
70930;BME280;58588;48.102;19.682;2022-08-11T08:37:20;99875.50;;;25.37;38.22
70930;BME280;58588;48.102;19.682;2022-08-11T08:40:23;99886.53;;;25.37;38.01
70930;BME280;58588;48.102;19.682;2022-08-11T08:43:25;99891.22;;;25.42;37.69
70930;BME280;58588;48.102;19.682;2022-08-11T08:46:35;99875.03;;;24.77;37.32
70930;BME280;58588;48.102;19.682;2022-08-11T08:49:47;99875.50;;;25.37;36.99
70930;BME280;58588;48.102;19.682;2022-08-11T08:52:55;99871.63;;;25.48;37.45
70930;BME280;58588;48.102;19.682;2022-08-11T08:56:00;99887.38;;;25.68;37.13
70930;BME280;58588;48.102;19.682;2022-08-11T08:59:03;99879.13;;;26.04;36.26
70930;BME280;58588;48.102;19.682;2022-08-11T09:02:08;99879.22;;;26.68;36.38
70930;BME280;58588;48.102;19.682;2022-08-11T09:05:16;99874.06;;;26.26;35.40
70930;BME280;58588;48.102;19.682;2022-08-11T09:08:19;99874.31;;;26.55;39.63
70930;BME280;58588;48.102;19.682;2022-08-11T09:11:22;99859.50;;;26.90;35.31
70930;BME280;58588;48.102;19.682;2022-08-11T09:14:42;99862.41;;;27.19;36.54
70930;BME280;58588;48.102;19.682;2022-08-11T09:18:04;99858.97;;;27.33;33.95
70930;BME280;58588;48.102;19.682;2022-08-11T09:21:10;99863.03;;;27.45;36.18
70930;BME280;58588;48.102;19.682;2022-08-11T09:24:12;99852.03;;;25.91;34.56
70930;BME280;58588;48.102;19.682;2022-08-11T09:27:32;99853.81;;;27.21;35.11
70930;BME280;58588;48.102;19.682;2022-08-11T09:30:34;99864.31;;;26.70;34.53
70930;BME280;58588;48.102;19.682;2022-08-11T09:33:39;99858.31;;;26.47;35.54
70930;BME280;58588;48.102;19.682;2022-08-11T09:36:42;99845.81;;;27.14;37.71
70930;BME280;58588;48.102;19.682;2022-08-11T09:40:03;99846.75;;;26.94;34.49
70930;BME280;58588;48.102;19.682;2022-08-11T09:43:24;99832.16;;;27.62;37.56
70930;BME280;58588;48.102;19.682;2022-08-11T09:46:43;99827.16;;;27.64;31.71
70930;BME280;58588;48.102;19.682;2022-08-11T09:49:48;99821.69;;;28.41;32.13
70930;BME280;58588;48.102;19.682;2022-08-11T09:52:52;99833.22;;;27.71;31.37
70930;BME280;58588;48.102;19.682;2022-08-11T09:55:55;99813.66;;;27.24;33.15
70930;BME280;58588;48.102;19.682;2022-08-11T09:58:58;99816.81;;;28.04;32.50
70930;BME280;58588;48.102;19.682;2022-08-11T10:02:01;99819.00;;;27.83;31.74
70930;BME280;58588;48.102;19.682;2022-08-11T10:05:06;99815.22;;;28.94;31.31
70930;BME280;58588;48.102;19.682;2022-08-11T10:08:27;99814.19;;;29.60;30.49
70930;BME280;58588;48.102;19.682;2022-08-11T10:11:31;99810.72;;;27.78;31.55
70930;BME280;58588;48.102;19.682;2022-08-11T10:14:40;99808.06;;;28.21;32.41
70930;BME280;58588;48.102;19.682;2022-08-11T10:18:14;99807.28;;;28.15;31.99
70930;BME280;58588;48.102;19.682;2022-08-11T10:21:38;99803.63;;;28.20;32.05
70930;BME280;58588;48.102;19.682;2022-08-11T10:24:42;99806.59;;;28.71;35.53
70930;BME280;58588;48.102;19.682;2022-08-11T10:28:03;99797.59;;;28.61;31.89
70930;BME280;58588;48.102;19.682;2022-08-11T10:31:08;99793.53;;;28.72;31.88
70930;BME280;58588;48.102;19.682;2022-08-11T10:34:28;99793.81;;;28.94;34.15
70930;BME280;58588;48.102;19.682;2022-08-11T10:37:32;99793.97;;;29.22;31.21
70930;BME280;58588;48.102;19.682;2022-08-11T10:40:38;99789.19;;;29.41;28.42
70930;BME280;58588;48.102;19.682;2022-08-11T10:43:41;99776.50;;;30.14;30.13
70930;BME280;58588;48.102;19.682;2022-08-11T10:46:42;99773.53;;;29.13;29.58
70930;BME280;58588;48.102;19.682;2022-08-11T10:50:03;99772.66;;;28.98;31.06
70930;BME280;58588;48.102;19.682;2022-08-11T10:53:27;99763.34;;;28.04;35.29
70930;BME280;58588;48.102;19.682;2022-08-11T10:56:47;99760.09;;;27.96;32.72
70930;BME280;58588;48.102;19.682;2022-08-11T11:00:09;99755.19;;;28.36;32.27
70930;BME280;58588;48.102;19.682;2022-08-11T11:03:13;99756.59;;;28.10;30.78
70930;BME280;58588;48.102;19.682;2022-08-11T11:06:22;99755.13;;;27.64;33.14
70930;BME280;58588;48.102;19.682;2022-08-11T11:09:29;99748.75;;;27.69;32.47
70930;BME280;58588;48.102;19.682;2022-08-11T11:12:35;99746.97;;;27.49;36.66
70930;BME280;58588;48.102;19.682;2022-08-11T11:15:57;99747.34;;;27.37;32.55
70930;BME280;58588;48.102;19.682;2022-08-11T11:19:19;99742.34;;;27.39;36.22
70930;BME280;58588;48.102;19.682;2022-08-11T11:22:26;99735.13;;;27.04;37.01
70930;BME280;58588;48.102;19.682;2022-08-11T11:29:45;99740.22;;;27.31;33.42
70930;BME280;58588;48.102;19.682;2022-08-11T11:33:01;99731.03;;;28.37;38.30
70930;BME280;58588;48.102;19.682;2022-08-11T11:36:11;99728.47;;;28.64;28.88
70930;BME280;58588;48.102;19.682;2022-08-11T11:39:18;99720.63;;;29.55;29.20
70930;BME280;58588;48.102;19.682;2022-08-11T11:42:25;99722.03;;;30.13;30.70
70930;BME280;58588;48.102;19.682;2022-08-11T11:45:29;99711.09;;;30.67;27.57
70930;BME280;58588;48.102;19.682;2022-08-11T11:48:31;99707.97;;;30.04;28.53
70930;BME280;58588;48.102;19.682;2022-08-11T11:51:36;99709.31;;;29.52;30.88
70930;BME280;58588;48.102;19.682;2022-08-11T11:54:39;99707.72;;;29.13;29.64
70930;BME280;58588;48.102;19.682;2022-08-11T11:57:43;99705.97;;;29.03;30.69
70930;BME280;58588;48.102;19.682;2022-08-11T12:01:04;99697.59;;;28.85;30.82
70930;BME280;58588;48.102;19.682;2022-08-11T12:04:21;99701.47;;;28.32;30.12
70930;BME280;58588;48.102;19.682;2022-08-11T12:07:24;99698.84;;;27.40;33.33
70930;BME280;58588;48.102;19.682;2022-08-11T12:10:46;99697.31;;;26.55;33.89
70930;BME280;58588;48.102;19.682;2022-08-11T12:13:50;99689.59;;;25.93;34.21
70930;BME280;58588;48.102;19.682;2022-08-11T12:16:54;99693.56;;;26.31;34.13
70930;BME280;58588;48.102;19.682;2022-08-11T12:19:57;99695.72;;;26.44;36.29
70930;BME280;58588;48.102;19.682;2022-08-11T12:22:59;99687.03;;;26.61;34.78
70930;BME280;58588;48.102;19.682;2022-08-11T12:26:18;99698.84;;;26.77;36.39
70930;BME280;58588;48.102;19.682;2022-08-11T12:29:38;99688.50;;;26.48;33.96
70930;BME280;58588;48.102;19.682;2022-08-11T12:32:42;99685.44;;;26.50;33.40
70930;BME280;58588;48.102;19.682;2022-08-11T12:35:45;99682.19;;;26.42;34.28
70930;BME280;58588;48.102;19.682;2022-08-11T12:38:49;99688.06;;;26.75;38.99
70930;BME280;58588;48.102;19.682;2022-08-11T12:41:52;99686.53;;;26.93;36.52
70930;BME280;58588;48.102;19.682;2022-08-11T12:45:12;99683.97;;;27.07;33.15
70930;BME280;58588;48.102;19.682;2022-08-11T12:48:35;99677.44;;;27.21;33.65
70930;BME280;58588;48.102;19.682;2022-08-11T12:51:54;99674.72;;;27.16;33.79
70930;BME280;58588;48.102;19.682;2022-08-11T12:55:06;99670.25;;;27.20;36.39
70930;BME280;58588;48.102;19.682;2022-08-11T12:58:12;99665.03;;;27.19;33.96
70930;BME280;58588;48.102;19.682;2022-08-11T13:01:18;99665.91;;;27.67;33.84
70930;BME280;58588;48.102;19.682;2022-08-11T13:04:41;99667.69;;;28.25;34.74
70930;BME280;58588;48.102;19.682;2022-08-11T13:07:59;99662.44;;;28.99;33.49
70930;BME280;58588;48.102;19.682;2022-08-11T13:11:02;99670.59;;;29.09;29.89
70930;BME280;58588;48.102;19.682;2022-08-11T13:14:22;99661.47;;;29.82;32.01
70930;BME280;58588;48.102;19.682;2022-08-11T13:17:25;99661.72;;;29.40;31.51
70930;BME280;58588;48.102;19.682;2022-08-11T13:20:33;99673.25;;;29.00;30.02
70930;BME280;58588;48.102;19.682;2022-08-11T13:23:37;99659.19;;;29.71;28.57
70930;BME280;58588;48.102;19.682;2022-08-11T13:26:39;99650.53;;;29.72;27.71
70930;BME280;58588;48.102;19.682;2022-08-11T13:29:43;99643.84;;;30.51;28.72
70930;BME280;58588;48.102;19.682;2022-08-11T13:32:47;99633.56;;;29.74;29.18
70930;BME280;58588;48.102;19.682;2022-08-11T13:35:52;99644.81;;;29.22;29.99
70930;BME280;58588;48.102;19.682;2022-08-11T13:38:55;99637.97;;;29.89;30.22
70930;BME280;58588;48.102;19.682;2022-08-11T13:42:00;99634.06;;;30.53;29.38
70930;BME280;58588;48.102;19.682;2022-08-11T13:45:04;99635.16;;;31.42;26.77
70930;BME280;58588;48.102;19.682;2022-08-11T13:48:08;99624.06;;;32.08;28.89
70930;BME280;58588;48.102;19.682;2022-08-11T13:51:12;99616.22;;;32.10;26.44
70930;BME280;58588;48.102;19.682;2022-08-11T13:54:35;99626.88;;;33.03;26.20
70930;BME280;58588;48.102;19.682;2022-08-11T13:57:38;99613.19;;;31.89;27.36
70930;BME280;58588;48.102;19.682;2022-08-11T14:00:43;99617.94;;;31.17;27.19
70930;BME280;58588;48.102;19.682;2022-08-11T14:03:46;99612.34;;;29.78;26.30
70930;BME280;58588;48.102;19.682;2022-08-11T14:06:53;99609.19;;;28.45;28.52
70930;BME280;58588;48.102;19.682;2022-08-11T14:10:00;99611.09;;;28.07;30.54
70930;BME280;58588;48.102;19.682;2022-08-11T14:13:07;99611.59;;;27.71;31.03
70930;BME280;58588;48.102;19.682;2022-08-11T14:16:28;99608.47;;;27.97;31.48
70930;BME280;58588;48.102;19.682;2022-08-11T14:19:34;99606.56;;;28.87;31.86
70930;BME280;58588;48.102;19.682;2022-08-11T14:22:41;99602.91;;;29.65;31.23
70930;BME280;58588;48.102;19.682;2022-08-11T14:25:43;99596.66;;;30.46;30.27
70930;BME280;58588;48.102;19.682;2022-08-11T14:29:00;99595.44;;;31.05;33.53
70930;BME280;58588;48.102;19.682;2022-08-11T14:32:05;99595.28;;;31.02;29.58
70930;BME280;58588;48.102;19.682;2022-08-11T14:35:07;99601.00;;;31.28;27.96
70930;BME280;58588;48.102;19.682;2022-08-11T14:38:12;99607.50;;;31.54;28.33
70930;BME280;58588;48.102;19.682;2022-08-11T14:41:15;99599.88;;;29.89;27.03
70930;BME280;58588;48.102;19.682;2022-08-11T14:44:37;99608.91;;;28.61;27.15
70930;BME280;58588;48.102;19.682;2022-08-11T14:47:59;99598.44;;;28.20;31.80
70930;BME280;58588;48.102;19.682;2022-08-11T14:51:02;99599.22;;;27.83;29.48
70930;BME280;58588;48.102;19.682;2022-08-11T14:54:06;99595.81;;;27.67;30.07
70930;BME280;58588;48.102;19.682;2022-08-11T14:57:27;99600.09;;;28.21;30.96
70930;BME280;58588;48.102;19.682;2022-08-11T15:00:31;99591.97;;;29.27;30.58
70930;BME280;58588;48.102;19.682;2022-08-11T15:03:34;99596.88;;;29.03;30.51
70930;BME280;58588;48.102;19.682;2022-08-11T15:06:36;99601.91;;;29.15;31.17
70930;BME280;58588;48.102;19.682;2022-08-11T15:09:41;99626.63;;;29.30;30.92
70930;BME280;58588;48.102;19.682;2022-08-11T15:12:44;99624.00;;;29.52;30.52
70930;BME280;58588;48.102;19.682;2022-08-11T15:15:47;99635.91;;;28.93;33.29
70930;BME280;58588;48.102;19.682;2022-08-11T15:19:07;99637.22;;;28.44;36.62
70930;BME280;58588;48.102;19.682;2022-08-11T15:22:10;99644.59;;;25.87;39.21
70930;BME280;58588;48.102;19.682;2022-08-11T15:25:31;99641.72;;;24.81;45.71
70930;BME280;58588;48.102;19.682;2022-08-11T15:28:38;99654.47;;;23.89;50.07
70930;BME280;58588;48.102;19.682;2022-08-11T15:31:58;99650.44;;;23.60;55.81
70930;BME280;58588;48.102;19.682;2022-08-11T15:35:18;99645.91;;;23.33;59.46
70930;BME280;58588;48.102;19.682;2022-08-11T15:38:41;99641.88;;;23.04;59.89
70930;BME280;58588;48.102;19.682;2022-08-11T15:41:56;99643.38;;;22.89;66.77
70930;BME280;58588;48.102;19.682;2022-08-11T15:45:21;99644.34;;;22.73;62.71
70930;BME280;58588;48.102;19.682;2022-08-11T15:48:45;99655.63;;;22.44;68.21
70930;BME280;58588;48.102;19.682;2022-08-11T15:51:50;99648.91;;;22.35;74.19
70930;BME280;58588;48.102;19.682;2022-08-11T15:54:55;99653.19;;;22.21;69.40
70930;BME280;58588;48.102;19.682;2022-08-11T15:58:03;99656.69;;;22.16;71.36
70930;BME280;58588;48.102;19.682;2022-08-11T16:01:26;99657.69;;;22.32;64.27
70930;BME280;58588;48.102;19.682;2022-08-11T16:05:04;99661.34;;;22.43;61.04
70930;BME280;58588;48.102;19.682;2022-08-11T16:08:07;99659.44;;;22.70;57.41
70930;BME280;58588;48.102;19.682;2022-08-11T16:11:10;99659.66;;;22.64;50.33
70930;BME280;58588;48.102;19.682;2022-08-11T16:14:16;99662.38;;;22.32;49.44
70930;BME280;58588;48.102;19.682;2022-08-11T16:17:40;99663.06;;;22.22;50.47
70930;BME280;58588;48.102;19.682;2022-08-11T16:20:45;99668.56;;;21.78;50.41
70930;BME280;58588;48.102;19.682;2022-08-11T16:23:52;99661.66;;;21.76;52.34
70930;BME280;58588;48.102;19.682;2022-08-11T16:26:57;99662.44;;;21.32;53.18
70930;BME280;58588;48.102;19.682;2022-08-11T16:30:02;99659.22;;;21.19;54.37
70930;BME280;58588;48.102;19.682;2022-08-11T16:33:07;99665.94;;;21.11;56.25
70930;BME280;58588;48.102;19.682;2022-08-11T16:36:11;99656.47;;;21.02;55.76
70930;BME280;58588;48.102;19.682;2022-08-11T16:39:32;99649.50;;;20.94;57.57
70930;BME280;58588;48.102;19.682;2022-08-11T16:42:36;99657.22;;;20.97;58.54
70930;BME280;58588;48.102;19.682;2022-08-11T16:45:58;99661.22;;;21.06;59.24
70930;BME280;58588;48.102;19.682;2022-08-11T16:49:22;99658.31;;;21.13;59.06
70930;BME280;58588;48.102;19.682;2022-08-11T16:52:25;99658.41;;;21.01;59.07
70930;BME280;58588;48.102;19.682;2022-08-11T16:55:27;99671.09;;;20.91;59.69
70930;BME280;58588;48.102;19.682;2022-08-11T16:58:33;99660.63;;;20.71;60.16
70930;BME280;58588;48.102;19.682;2022-08-11T17:01:57;99660.28;;;20.67;60.23
70930;BME280;58588;48.102;19.682;2022-08-11T17:05:01;99656.72;;;20.67;63.06
70930;BME280;58588;48.102;19.682;2022-08-11T17:08:29;99662.72;;;20.64;62.26
70930;BME280;58588;48.102;19.682;2022-08-11T17:11:54;99651.66;;;20.58;60.62
70930;BME280;58588;48.102;19.682;2022-08-11T17:15:16;99653.97;;;20.50;60.38
70930;BME280;58588;48.102;19.682;2022-08-11T17:18:43;99655.97;;;20.54;61.52
70930;BME280;58588;48.102;19.682;2022-08-11T17:21:47;99655.91;;;20.38;60.52
70930;BME280;58588;48.102;19.682;2022-08-11T17:25:07;99659.25;;;20.40;60.66
70930;BME280;58588;48.102;19.682;2022-08-11T17:28:11;99662.97;;;20.34;60.15
70930;BME280;58588;48.102;19.682;2022-08-11T17:31:14;99662.59;;;20.30;59.68